createdAt,value
2022-09-23T00:00:10.106Z,6.1
2022-09-23T00:05:10.092Z,6.1
2022-09-23T00:10:10.108Z,6.1
2022-09-23T00:15:10.098Z,6.2
2022-09-23T00:20:10.113Z,6.2
2022-09-23T00:25:10.101Z,6.1
2022-09-23T00:30:10.098Z,6.1
2022-09-23T00:35:10.104Z,6.1
2022-09-23T00:40:10.199Z,6.1
2022-09-23T00:45:10.099Z,6
2022-09-23T00:50:10.121Z,6
2022-09-23T00:55:10.105Z,6
2022-09-23T01:00:10.113Z,5.9
2022-09-23T01:05:10.102Z,5.9
2022-09-23T01:10:10.102Z,5.8
2022-09-23T01:15:10.106Z,5.8
2022-09-23T01:20:10.105Z,5.7
2022-09-23T01:25:10.103Z,5.7
2022-09-23T01:30:10.099Z,5.7
2022-09-23T01:35:10.103Z,5.7
2022-09-23T01:40:10.140Z,5.6
2022-09-23T01:45:10.098Z,5.4
2022-09-23T01:50:10.109Z,5.5
2022-09-23T01:55:10.095Z,5.4
2022-09-23T02:00:10.109Z,5.4
2022-09-23T02:05:10.099Z,5.4
2022-09-23T02:10:10.095Z,5.4
2022-09-23T02:15:10.102Z,5.5
2022-09-23T02:20:10.101Z,5.5
2022-09-23T02:25:10.100Z,5.3
2022-09-23T02:30:10.108Z,5.3
2022-09-23T02:35:10.112Z,5.2
2022-09-23T02:40:10.137Z,5.2
2022-09-23T02:45:10.098Z,5.5
2022-09-23T02:50:10.095Z,5.5
2022-09-23T02:55:10.091Z,5.4
2022-09-23T03:00:10.100Z,5.5
2022-09-23T03:05:10.094Z,5.5
2022-09-23T03:10:10.116Z,5.6
2022-09-23T03:15:10.098Z,5.6
2022-09-23T03:20:10.094Z,5.4
2022-09-23T03:25:10.105Z,5.2
2022-09-23T03:30:10.102Z,5.2
2022-09-23T03:35:10.096Z,5.1
2022-09-23T03:40:10.169Z,5.1
2022-09-23T03:45:10.089Z,5.2
2022-09-23T03:50:10.096Z,5.1
2022-09-23T03:55:10.081Z,5.2
2022-09-23T04:00:10.105Z,5.1
2022-09-23T04:05:10.094Z,5.1
2022-09-23T04:10:10.106Z,5
2022-09-23T04:15:10.086Z,5
2022-09-23T04:20:10.094Z,4.9
2022-09-23T04:25:10.108Z,4.8
2022-09-23T04:30:10.093Z,4.7
2022-09-23T04:35:10.122Z,4.6
2022-09-23T04:40:10.177Z,4.6
2022-09-23T04:45:10.112Z,4.5
2022-09-23T04:50:10.104Z,4.5
2022-09-23T04:55:11.267Z,4.5
2022-09-23T05:00:10.099Z,4.5
2022-09-23T05:05:10.102Z,4.4
2022-09-23T05:10:10.125Z,4.5
2022-09-23T05:15:10.095Z,4.4
2022-09-23T05:20:10.098Z,4.4
2022-09-23T05:25:10.090Z,4.6
2022-09-23T05:30:10.102Z,4.7
2022-09-23T05:35:10.098Z,5
2022-09-23T05:40:10.206Z,5
2022-09-23T05:45:10.100Z,5.5
2022-09-23T05:50:10.112Z,5.8
2022-09-23T05:55:10.098Z,6
2022-09-23T06:00:10.094Z,6
2022-09-23T06:05:10.101Z,6.5
2022-09-23T06:10:10.097Z,6.5
2022-09-23T06:15:10.093Z,7.1
2022-09-23T06:20:10.108Z,7.1
2022-09-23T06:25:10.089Z,7.6
2022-09-23T06:30:10.098Z,8
2022-09-23T06:35:19.490Z,8.6
2022-09-23T06:40:10.253Z,8.6
2022-09-23T06:45:10.320Z,8.8
2022-09-23T06:50:10.101Z,9.2
2022-09-23T06:55:10.116Z,9.5
2022-09-23T07:00:10.105Z,9.3
2022-09-23T07:05:10.100Z,9.4
2022-09-23T07:10:10.109Z,9.3
2022-09-23T07:15:10.111Z,9
2022-09-23T07:20:10.120Z,9.1
2022-09-23T07:25:10.106Z,9.5
2022-09-23T07:30:19.127Z,9.2
2022-09-23T07:35:10.099Z,9.2
2022-09-23T07:40:10.168Z,9.4
2022-09-23T07:45:10.100Z,9.5
2022-09-23T07:50:10.112Z,9.7
2022-09-23T07:55:10.099Z,10
2022-09-23T08:00:10.093Z,10.2
2022-09-23T08:05:10.095Z,10.6
2022-09-23T08:10:10.098Z,10.8
2022-09-23T08:15:10.099Z,10.9
2022-09-23T08:20:10.119Z,11.1
2022-09-23T08:25:10.332Z,11.1
2022-09-23T08:30:10.098Z,11.3
2022-09-23T08:35:10.111Z,11.4
2022-09-23T08:40:10.166Z,11.6
2022-09-23T08:45:10.089Z,11.5
2022-09-23T08:50:10.105Z,11.4
2022-09-23T08:55:10.090Z,11.3
2022-09-23T09:00:10.097Z,11.5
2022-09-23T09:05:10.101Z,12.2
2022-09-23T09:10:10.106Z,12.3
2022-09-23T09:15:10.088Z,12.2
2022-09-23T09:20:10.092Z,12.3
2022-09-23T09:25:10.100Z,12.6
2022-09-23T09:30:10.103Z,12.7
2022-09-23T09:35:10.100Z,13.4
2022-09-23T09:40:10.161Z,13.6
2022-09-23T09:45:10.110Z,14
2022-09-23T09:50:10.288Z,14.6
2022-09-23T09:55:10.059Z,14.5
2022-09-23T10:00:10.052Z,14.6
2022-09-23T10:05:10.045Z,14.4
2022-09-23T10:10:22.022Z,14.5
2022-09-23T10:15:10.045Z,14.4
2022-09-23T10:20:10.043Z,14.4
2022-09-23T10:25:10.045Z,15
2022-09-23T10:30:10.042Z,15.2
2022-09-23T10:35:10.043Z,15.4
2022-09-23T10:40:10.082Z,15.6
2022-09-23T10:45:10.054Z,15.7
2022-09-23T10:50:10.041Z,16
2022-09-23T10:55:10.037Z,16.2
2022-09-23T11:00:10.052Z,16.4
2022-09-23T11:05:10.144Z,16.4
2022-09-23T11:10:23.156Z,16.8
2022-09-23T11:15:10.058Z,16.6
2022-09-23T11:20:10.053Z,16.6
2022-09-23T11:25:10.052Z,16.7
2022-09-23T11:30:10.060Z,17.1
2022-09-23T11:35:10.065Z,16.7
2022-09-23T11:40:10.092Z,16.7
2022-09-23T11:45:10.058Z,17.3
2022-09-23T11:50:10.074Z,17.1
2022-09-23T11:55:19.130Z,17.1
2022-09-23T12:00:10.072Z,17.4
2022-09-23T12:05:10.195Z,17.7
2022-09-23T12:10:10.097Z,18.2
2022-09-23T12:15:10.061Z,17.8
2022-09-23T12:20:10.072Z,17.3
2022-09-23T12:25:10.069Z,18
2022-09-23T12:30:10.073Z,18
2022-09-23T12:35:10.064Z,17.8
2022-09-23T12:40:10.175Z,17.7
2022-09-23T12:45:10.078Z,17.7
2022-09-23T12:50:13.305Z,18.1
2022-09-23T12:55:10.084Z,17.9
2022-09-23T13:00:10.147Z,17.9
2022-09-23T13:05:10.073Z,18.7
2022-09-23T13:10:10.210Z,19.1
2022-09-23T13:15:10.075Z,19.1
2022-09-23T13:20:10.145Z,18.4
2022-09-23T13:25:10.074Z,18.2
2022-09-23T13:30:10.090Z,18.7
2022-09-23T13:35:10.133Z,18.5
2022-09-23T13:40:10.212Z,18.5
2022-09-23T13:45:10.070Z,18.7
2022-09-23T13:50:10.075Z,18.4
2022-09-23T13:55:10.077Z,18.5
2022-09-23T14:00:10.083Z,18.4
2022-09-23T14:05:10.076Z,18.9
2022-09-23T14:10:10.089Z,19.1
2022-09-23T14:15:10.082Z,19.3
2022-09-23T14:20:10.089Z,19.1
2022-09-23T14:25:10.077Z,18.8
2022-09-23T14:30:10.087Z,18.6
2022-09-23T14:35:10.085Z,18.5
2022-09-23T14:40:10.129Z,18.5
2022-09-23T14:45:10.084Z,18.5
2022-09-23T14:50:10.088Z,18.6
2022-09-23T14:55:10.085Z,18.7
2022-09-23T15:00:10.095Z,19
2022-09-23T15:05:10.088Z,18.2
2022-09-23T15:10:10.091Z,18
2022-09-23T15:15:10.089Z,17.9
2022-09-23T15:20:10.093Z,17.9
2022-09-23T15:25:10.094Z,17.8
2022-09-23T15:30:14.034Z,17.8
2022-09-23T15:35:10.086Z,17.9
2022-09-23T15:40:10.177Z,17.9
2022-09-23T15:45:10.096Z,17.9
2022-09-23T15:50:10.092Z,17.8
2022-09-23T15:55:10.091Z,17.9
2022-09-23T16:00:12.299Z,17.7
2022-09-23T16:05:10.097Z,17.6
2022-09-23T16:10:10.107Z,17.3
2022-09-23T16:15:10.101Z,17.1
2022-09-23T16:20:10.090Z,17.1
2022-09-23T16:25:10.087Z,16.3
2022-09-23T16:30:10.087Z,15.6
2022-09-23T16:35:10.101Z,15.2
2022-09-23T16:40:10.123Z,14.9
2022-09-23T16:45:10.094Z,14.6
2022-09-23T16:50:10.087Z,14.3
2022-09-23T16:55:10.095Z,13.9
2022-09-23T17:00:10.099Z,13.8
2022-09-23T17:05:10.101Z,13.4
2022-09-23T17:10:10.096Z,13
2022-09-23T17:15:10.094Z,12.8
2022-09-23T17:20:10.100Z,12.5
2022-09-23T17:25:10.115Z,12.3
2022-09-23T17:30:10.110Z,12.1
2022-09-23T17:35:10.101Z,12
2022-09-23T17:40:10.131Z,12
2022-09-23T17:45:10.093Z,12
2022-09-23T17:50:10.108Z,11.8
2022-09-23T17:55:10.092Z,11.8
2022-09-23T18:00:10.109Z,11.5
2022-09-23T18:05:10.100Z,11.4
2022-09-23T18:10:10.117Z,11.2
2022-09-23T18:15:10.101Z,11.1
2022-09-23T18:20:10.096Z,11.1
2022-09-23T18:25:28.737Z,11
2022-09-23T18:30:10.112Z,10.8
2022-09-23T18:35:10.104Z,10.9
2022-09-23T18:40:13.922Z,10.9
2022-09-23T18:45:10.100Z,10.8
2022-09-23T18:50:10.102Z,10.8
2022-09-23T18:55:10.110Z,10.7
2022-09-23T19:00:10.098Z,10.9
2022-09-23T19:05:10.104Z,10.9
2022-09-23T19:10:10.103Z,11
2022-09-23T19:15:10.092Z,10.8
2022-09-23T19:20:10.107Z,10.9
2022-09-23T19:25:10.104Z,11
2022-09-23T19:30:10.108Z,10.7
2022-09-23T19:35:10.100Z,10.9
2022-09-23T19:40:10.179Z,10.9
2022-09-23T19:45:10.105Z,11
2022-09-23T19:50:10.118Z,11
2022-09-23T20:00:10.085Z,11.2
2022-09-23T20:05:12.072Z,11.1
2022-09-23T20:10:10.095Z,11
2022-09-23T20:15:10.082Z,10.7
2022-09-23T20:20:10.094Z,10.6
2022-09-23T20:25:10.106Z,10.7
2022-09-23T20:30:10.099Z,10.5
2022-09-23T20:35:10.086Z,10.5
2022-09-23T20:40:10.161Z,10.5
2022-09-23T20:45:10.084Z,10.3
2022-09-23T20:50:10.089Z,10.2
2022-09-23T20:55:10.093Z,10.1
2022-09-23T21:00:10.087Z,10.1
2022-09-23T21:05:10.087Z,10.4
2022-09-23T21:10:10.096Z,10.4
2022-09-23T21:15:10.079Z,10.4
2022-09-23T21:20:10.092Z,10.4
2022-09-23T21:25:27.248Z,10.2
2022-09-23T21:30:10.087Z,10.2
2022-09-23T21:35:10.097Z,10.1
2022-09-23T21:40:10.173Z,10
2022-09-23T21:45:10.086Z,9.9
2022-09-23T21:50:10.098Z,9.9
2022-09-23T21:55:10.094Z,9.8
2022-09-23T22:00:10.092Z,9.8
2022-09-23T22:05:10.102Z,10
2022-09-23T22:10:10.092Z,9.9
2022-09-23T22:15:10.170Z,9.9
2022-09-23T22:20:10.091Z,10
2022-09-23T22:25:10.089Z,9.9
2022-09-23T22:30:10.091Z,9.7
2022-09-23T22:35:10.084Z,9.7
2022-09-23T22:40:10.181Z,9.6
2022-09-23T22:45:10.081Z,9.6
2022-09-23T22:50:10.091Z,9.5
2022-09-23T22:55:10.091Z,9.5
2022-09-23T23:00:10.096Z,9.4
2022-09-23T23:05:10.085Z,9.4
2022-09-23T23:10:10.324Z,9.4
2022-09-23T23:15:10.081Z,9.3
2022-09-23T23:20:10.094Z,9.4
2022-09-23T23:25:10.085Z,9.5
2022-09-23T23:30:10.100Z,9.4
2022-09-23T23:35:10.087Z,9.4
2022-09-23T23:40:10.155Z,9.3
2022-09-23T23:45:10.088Z,9.2
2022-09-23T23:50:10.095Z,9.1
2022-09-23T23:55:10.091Z,9
